Bigand, Argentina
Current Conditions -  °F | °C
As of 7:00 AM on Monday 22 Dec 2014 (Local Time) from SAAR Reporting Station
Clear Clear  
Wind Chill: 54°   Ceiling: Unl
Heat Index: 54°   Visibility: 6mi
Dew Point: 43°   Wind: 8mph
Humidity: 67%   Direction: 200°SSW
Pressure: 30.06"   Gusts: NA
Location:  33.38°S, 61.18°W
Report Text: SAAR 221000Z 20007KT CAVOK 12/06 Q1018
Loading
Personal Weather Stations






























Interactive Weather Map New forecast layout! Learn more

10-Day Weather Forecast

Advertisements
Track Severe Weather on mobile